Yeager Airport
KCRW : now visible

Airfield :











YOU CAN JOIN US ON...

 
LOGIN :

Register | Disclaimer

   EN    FR    IT 

 









Legend :    VFR   Marginal VFR   IFR   Intensive IFR   Very Intensive IFR
Visi :
Ceiling :
>= 8 km
>= 3000ft
5 to 8 km
1000 to 3000 ft
1500m to 5 km
500 to 1000 ft
800 to 1500m
200 to 500 ft
< 800m
< 200 ft
Symbols :   Thunderstorms  Fog  Heavy snow  Heavy precipitations  Wind > 20 kt







- Airport Elevation : 981 ft
- IATA code : CRW


KCRW - Yeager

CURRENT METAR :
  • 260654Z 18003KT 10SM CLR 20/19 A3008 RMK AO2 SLP176 T02000189

EXPIRED METARs :
  • 260554Z 00000KT 10SM CLR 21/19 A3008 RMK AO2 SLP175 T02060194 10283 20206 58002
  • 260454Z 00000KT 10SM FEW050 21/20 A3009 RMK AO2 SLP178 T02110200 403110189

TAF KCRW
Valid from the 26 at 06:00 until the 27 at 06:00 UTC


260537Z 2606/2706 00000KT P6SM FEW050
FM261200 VRB03KT P6SM SCT045
FM261700 26006KT 6SM -SHRA VCTS BKN035CB
FM261900 27005KT P6SM SCT100
FM262300 31010KT 3SM TSRA BKN030CB
FM270100 29006KT P6SM BKN050
KZID FIR / North America



MET'MAP, your aeronautical weather chart ! - Copyright ORBIFLY December 2007 - Disclaimer

ORBIFLY MET'MAP TEAM :

Programming & Development : Alexandra Zaïnal
Concept & Development : Baudouin d'Aumeries
Co-Development & Prog : Marc-Olivier Méhu
Technical & hardware support : Manuel Goepfert

Contact : metmap@orbifly.com




SOURCES & CREDITS :

   NOAA       Earth
Advisory